sensor_id;sensor_type;location;lat;lon;timestamp;temperature;humidity
39957;DHT22;48483;44.640;7.494;2023-01-23T00:01:04;3.60;81.00
39957;DHT22;48483;44.640;7.494;2023-01-23T00:03:31;3.60;81.40
39957;DHT22;48483;44.640;7.494;2023-01-23T00:05:59;3.60;81.50
39957;DHT22;48483;44.640;7.494;2023-01-23T00:08:27;3.60;81.90
39957;DHT22;48483;44.640;7.494;2023-01-23T00:10:54;3.60;82.30
39957;DHT22;48483;44.640;7.494;2023-01-23T00:13:21;3.60;82.40
39957;DHT22;48483;44.640;7.494;2023-01-23T00:15:48;3.60;82.20
39957;DHT22;48483;44.640;7.494;2023-01-23T00:18:14;3.60;82.00
39957;DHT22;48483;44.640;7.494;2023-01-23T00:20:41;3.60;81.90
39957;DHT22;48483;44.640;7.494;2023-01-23T00:23:09;3.60;82.20
39957;DHT22;48483;44.640;7.494;2023-01-23T00:25:37;3.60;82.40
39957;DHT22;48483;44.640;7.494;2023-01-23T00:28:05;3.60;82.80
39957;DHT22;48483;44.640;7.494;2023-01-23T00:30:32;3.70;82.80
39957;DHT22;48483;44.640;7.494;2023-01-23T00:32:58;3.70;82.80
39957;DHT22;48483;44.640;7.494;2023-01-23T00:35:26;3.70;82.70
39957;DHT22;48483;44.640;7.494;2023-01-23T00:37:54;3.80;82.90
39957;DHT22;48483;44.640;7.494;2023-01-23T00:40:20;3.80;83.10
39957;DHT22;48483;44.640;7.494;2023-01-23T00:42:48;3.80;83.00
39957;DHT22;48483;44.640;7.494;2023-01-23T00:45:16;3.80;83.10
39957;DHT22;48483;44.640;7.494;2023-01-23T00:47:42;3.80;82.80
39957;DHT22;48483;44.640;7.494;2023-01-23T00:50:10;3.90;82.40
39957;DHT22;48483;44.640;7.494;2023-01-23T00:52:37;3.90;82.30
39957;DHT22;48483;44.640;7.494;2023-01-23T00:55:05;3.90;82.20
39957;DHT22;48483;44.640;7.494;2023-01-23T00:57:32;3.90;82.30
39957;DHT22;48483;44.640;7.494;2023-01-23T00:59:59;3.90;82.90
39957;DHT22;48483;44.640;7.494;2023-01-23T01:02:26;3.80;83.40
39957;DHT22;48483;44.640;7.494;2023-01-23T01:04:53;3.80;83.60
39957;DHT22;48483;44.640;7.494;2023-01-23T01:07:22;3.80;83.70
39957;DHT22;48483;44.640;7.494;2023-01-23T01:09:49;3.80;84.10
39957;DHT22;48483;44.640;7.494;2023-01-23T01:12:16;3.80;84.70
39957;DHT22;48483;44.640;7.494;2023-01-23T01:14:44;3.80;84.80
39957;DHT22;48483;44.640;7.494;2023-01-23T01:17:12;3.70;85.20
39957;DHT22;48483;44.640;7.494;2023-01-23T01:19:39;3.70;85.60
39957;DHT22;48483;44.640;7.494;2023-01-23T01:22:05;3.70;86.10
39957;DHT22;48483;44.640;7.494;2023-01-23T01:24:32;3.70;86.20
39957;DHT22;48483;44.640;7.494;2023-01-23T01:26:58;3.70;86.60
39957;DHT22;48483;44.640;7.494;2023-01-23T01:29:25;3.70;86.40
39957;DHT22;48483;44.640;7.494;2023-01-23T01:31:51;3.70;86.20
39957;DHT22;48483;44.640;7.494;2023-01-23T01:34:20;3.70;86.80
39957;DHT22;48483;44.640;7.494;2023-01-23T01:36:48;3.70;87.20
39957;DHT22;48483;44.640;7.494;2023-01-23T01:39:15;3.70;87.70
39957;DHT22;48483;44.640;7.494;2023-01-23T01:41:41;3.70;87.00
39957;DHT22;48483;44.640;7.494;2023-01-23T01:44:11;3.70;88.10
39957;DHT22;48483;44.640;7.494;2023-01-23T01:46:39;3.60;87.40
39957;DHT22;48483;44.640;7.494;2023-01-23T01:49:08;3.70;87.10
39957;DHT22;48483;44.640;7.494;2023-01-23T01:51:41;3.60;86.50
39957;DHT22;48483;44.640;7.494;2023-01-23T01:54:15;3.60;87.40
39957;DHT22;48483;44.640;7.494;2023-01-23T01:56:47;3.60;88.70
39957;DHT22;48483;44.640;7.494;2023-01-23T01:59:15;3.60;89.40
39957;DHT22;48483;44.640;7.494;2023-01-23T02:01:45;3.60;89.40
39957;DHT22;48483;44.640;7.494;2023-01-23T02:04:12;3.60;89.20
39957;DHT22;48483;44.640;7.494;2023-01-23T02:06:42;3.60;88.90
39957;DHT22;48483;44.640;7.494;2023-01-23T02:09:15;3.50;88.90
39957;DHT22;48483;44.640;7.494;2023-01-23T02:11:43;3.50;89.20
39957;DHT22;48483;44.640;7.494;2023-01-23T02:14:10;3.50;89.50
39957;DHT22;48483;44.640;7.494;2023-01-23T02:16:38;3.50;90.00
39957;DHT22;48483;44.640;7.494;2023-01-23T02:19:15;3.50;90.10
39957;DHT22;48483;44.640;7.494;2023-01-23T02:21:46;3.50;88.30
39957;DHT22;48483;44.640;7.494;2023-01-23T02:24:21;3.60;85.30
39957;DHT22;48483;44.640;7.494;2023-01-23T02:26:53;3.70;82.10
39957;DHT22;48483;44.640;7.494;2023-01-23T02:29:20;3.80;79.40
39957;DHT22;48483;44.640;7.494;2023-01-23T02:31:50;3.90;78.80
39957;DHT22;48483;44.640;7.494;2023-01-23T02:34:20;3.80;81.30
39957;DHT22;48483;44.640;7.494;2023-01-23T02:36:48;3.80;82.20
39957;DHT22;48483;44.640;7.494;2023-01-23T02:39:16;3.80;82.30
39957;DHT22;48483;44.640;7.494;2023-01-23T02:41:49;3.70;83.10
39957;DHT22;48483;44.640;7.494;2023-01-23T02:44:21;3.70;83.30
39957;DHT22;48483;44.640;7.494;2023-01-23T02:47:06;3.70;84.00
39957;DHT22;48483;44.640;7.494;2023-01-23T02:49:37;3.60;84.00
39957;DHT22;48483;44.640;7.494;2023-01-23T02:52:05;3.60;84.70
39957;DHT22;48483;44.640;7.494;2023-01-23T02:54:32;3.60;84.30
39957;DHT22;48483;44.640;7.494;2023-01-23T02:56:58;3.60;84.10
39957;DHT22;48483;44.640;7.494;2023-01-23T02:59:26;3.60;85.10
39957;DHT22;48483;44.640;7.494;2023-01-23T03:02:11;3.50;86.20
39957;DHT22;48483;44.640;7.494;2023-01-23T03:04:40;3.50;86.90
39957;DHT22;48483;44.640;7.494;2023-01-23T03:07:07;3.50;86.90
39957;DHT22;48483;44.640;7.494;2023-01-23T03:09:33;3.40;86.80
39957;DHT22;48483;44.640;7.494;2023-01-23T03:12:00;3.40;86.90
39957;DHT22;48483;44.640;7.494;2023-01-23T03:14:29;3.50;86.90
39957;DHT22;48483;44.640;7.494;2023-01-23T03:16:58;3.40;87.70
39957;DHT22;48483;44.640;7.494;2023-01-23T03:19:29;3.40;88.40
39957;DHT22;48483;44.640;7.494;2023-01-23T03:21:56;3.40;88.70
39957;DHT22;48483;44.640;7.494;2023-01-23T03:24:23;3.40;89.40
39957;DHT22;48483;44.640;7.494;2023-01-23T03:26:50;3.30;89.80
39957;DHT22;48483;44.640;7.494;2023-01-23T03:29:20;3.30;90.10
39957;DHT22;48483;44.640;7.494;2023-01-23T03:32:07;3.30;90.10
39957;DHT22;48483;44.640;7.494;2023-01-23T03:34:35;3.40;89.10
39957;DHT22;48483;44.640;7.494;2023-01-23T03:37:01;3.40;88.20
39957;DHT22;48483;44.640;7.494;2023-01-23T03:39:31;3.40;88.20
39957;DHT22;48483;44.640;7.494;2023-01-23T03:42:17;3.40;88.30
39957;DHT22;48483;44.640;7.494;2023-01-23T03:44:46;3.40;87.70
39957;DHT22;48483;44.640;7.494;2023-01-23T03:47:14;3.40;87.70
39957;DHT22;48483;44.640;7.494;2023-01-23T03:49:41;3.40;88.10
39957;DHT22;48483;44.640;7.494;2023-01-23T03:52:07;3.40;88.80
39957;DHT22;48483;44.640;7.494;2023-01-23T03:54:34;3.30;88.40
39957;DHT22;48483;44.640;7.494;2023-01-23T03:57:01;3.30;87.80
39957;DHT22;48483;44.640;7.494;2023-01-23T03:59:53;3.30;86.40
39957;DHT22;48483;44.640;7.494;2023-01-23T04:02:26;3.40;85.40
39957;DHT22;48483;44.640;7.494;2023-01-23T04:04:54;3.40;85.10
39957;DHT22;48483;44.640;7.494;2023-01-23T04:07:21;3.40;85.50
39957;DHT22;48483;44.640;7.494;2023-01-23T04:09:48;3.40;85.30
39957;DHT22;48483;44.640;7.494;2023-01-23T04:12:16;3.40;84.00
39957;DHT22;48483;44.640;7.494;2023-01-23T04:14:46;3.50;83.00
39957;DHT22;48483;44.640;7.494;2023-01-23T04:17:14;3.50;83.30
39957;DHT22;48483;44.640;7.494;2023-01-23T04:19:42;3.50;82.50
39957;DHT22;48483;44.640;7.494;2023-01-23T04:22:08;3.60;81.30
39957;DHT22;48483;44.640;7.494;2023-01-23T04:24:41;3.60;80.80
39957;DHT22;48483;44.640;7.494;2023-01-23T04:27:09;3.60;81.00
39957;DHT22;48483;44.640;7.494;2023-01-23T04:29:35;3.70;80.20
39957;DHT22;48483;44.640;7.494;2023-01-23T04:32:03;3.70;79.00
39957;DHT22;48483;44.640;7.494;2023-01-23T04:34:32;3.80;77.60
39957;DHT22;48483;44.640;7.494;2023-01-23T04:37:01;3.80;76.60
39957;DHT22;48483;44.640;7.494;2023-01-23T04:39:30;3.80;76.10
39957;DHT22;48483;44.640;7.494;2023-01-23T04:41:56;3.90;75.50
39957;DHT22;48483;44.640;7.494;2023-01-23T04:44:45;3.90;75.30
39957;DHT22;48483;44.640;7.494;2023-01-23T04:47:31;3.90;75.50
39957;DHT22;48483;44.640;7.494;2023-01-23T04:49:58;3.90;74.70
39957;DHT22;48483;44.640;7.494;2023-01-23T04:52:26;3.90;74.10
39957;DHT22;48483;44.640;7.494;2023-01-23T04:54:56;3.90;73.00
39957;DHT22;48483;44.640;7.494;2023-01-23T04:57:23;3.90;72.80
39957;DHT22;48483;44.640;7.494;2023-01-23T04:59:55;3.90;72.70
39957;DHT22;48483;44.640;7.494;2023-01-23T05:02:22;3.90;72.80
39957;DHT22;48483;44.640;7.494;2023-01-23T05:04:49;3.90;72.60
39957;DHT22;48483;44.640;7.494;2023-01-23T05:07:15;4.00;72.40
39957;DHT22;48483;44.640;7.494;2023-01-23T05:09:52;3.90;72.00
39957;DHT22;48483;44.640;7.494;2023-01-23T05:12:19;4.00;71.90
39957;DHT22;48483;44.640;7.494;2023-01-23T05:14:46;3.90;72.20
39957;DHT22;48483;44.640;7.494;2023-01-23T05:17:13;3.90;72.00
39957;DHT22;48483;44.640;7.494;2023-01-23T05:19:44;3.90;71.90
39957;DHT22;48483;44.640;7.494;2023-01-23T05:22:11;4.00;71.50
39957;DHT22;48483;44.640;7.494;2023-01-23T05:24:38;4.00;71.40
39957;DHT22;48483;44.640;7.494;2023-01-23T05:27:06;4.00;71.80
39957;DHT22;48483;44.640;7.494;2023-01-23T05:29:37;4.00;72.30
39957;DHT22;48483;44.640;7.494;2023-01-23T05:32:10;4.00;72.90
39957;DHT22;48483;44.640;7.494;2023-01-23T05:34:37;4.00;72.80
39957;DHT22;48483;44.640;7.494;2023-01-23T05:37:10;4.00;73.00
39957;DHT22;48483;44.640;7.494;2023-01-23T05:39:38;4.00;73.30
39957;DHT22;48483;44.640;7.494;2023-01-23T05:42:06;4.00;73.30
39957;DHT22;48483;44.640;7.494;2023-01-23T05:44:51;4.00;73.90
39957;DHT22;48483;44.640;7.494;2023-01-23T05:47:34;3.90;75.10
39957;DHT22;48483;44.640;7.494;2023-01-23T05:50:03;3.90;76.80
39957;DHT22;48483;44.640;7.494;2023-01-23T05:52:33;3.90;77.60
39957;DHT22;48483;44.640;7.494;2023-01-23T05:55:00;3.80;78.50
39957;DHT22;48483;44.640;7.494;2023-01-23T05:57:28;3.80;79.10
39957;DHT22;48483;44.640;7.494;2023-01-23T06:00:14;3.80;78.50
39957;DHT22;48483;44.640;7.494;2023-01-23T06:02:42;3.80;77.60
39957;DHT22;48483;44.640;7.494;2023-01-23T06:05:29;3.90;76.70
39957;DHT22;48483;44.640;7.494;2023-01-23T06:08:02;3.90;76.50
39957;DHT22;48483;44.640;7.494;2023-01-23T06:10:29;3.90;76.50
39957;DHT22;48483;44.640;7.494;2023-01-23T06:12:57;3.90;75.90
39957;DHT22;48483;44.640;7.494;2023-01-23T06:15:24;3.90;76.30
39957;DHT22;48483;44.640;7.494;2023-01-23T06:17:53;3.90;77.00
39957;DHT22;48483;44.640;7.494;2023-01-23T06:20:20;3.90;77.80
39957;DHT22;48483;44.640;7.494;2023-01-23T06:22:46;3.90;77.80
39957;DHT22;48483;44.640;7.494;2023-01-23T06:25:14;3.80;77.90
39957;DHT22;48483;44.640;7.494;2023-01-23T06:27:40;3.90;78.00
39957;DHT22;48483;44.640;7.494;2023-01-23T06:30:11;3.90;77.90
39957;DHT22;48483;44.640;7.494;2023-01-23T06:32:43;3.80;78.00
39957;DHT22;48483;44.640;7.494;2023-01-23T06:35:11;3.80;78.00
39957;DHT22;48483;44.640;7.494;2023-01-23T06:37:41;3.90;78.10
39957;DHT22;48483;44.640;7.494;2023-01-23T06:40:10;3.90;78.60
39957;DHT22;48483;44.640;7.494;2023-01-23T06:42:39;3.80;79.30
39957;DHT22;48483;44.640;7.494;2023-01-23T06:45:07;3.80;79.80
39957;DHT22;48483;44.640;7.494;2023-01-23T06:47:36;3.80;80.30
39957;DHT22;48483;44.640;7.494;2023-01-23T06:50:04;3.80;80.30
39957;DHT22;48483;44.640;7.494;2023-01-23T06:52:35;3.80;79.90
39957;DHT22;48483;44.640;7.494;2023-01-23T06:55:02;3.80;80.40
39957;DHT22;48483;44.640;7.494;2023-01-23T06:57:29;3.80;81.00
39957;DHT22;48483;44.640;7.494;2023-01-23T06:59:56;3.80;81.30
39957;DHT22;48483;44.640;7.494;2023-01-23T07:02:23;3.80;81.50
39957;DHT22;48483;44.640;7.494;2023-01-23T07:04:52;3.80;80.20
39957;DHT22;48483;44.640;7.494;2023-01-23T07:07:19;3.90;80.00
39957;DHT22;48483;44.640;7.494;2023-01-23T07:09:48;3.90;80.80
39957;DHT22;48483;44.640;7.494;2023-01-23T07:12:20;3.90;80.90
39957;DHT22;48483;44.640;7.494;2023-01-23T07:14:47;3.90;81.80
39957;DHT22;48483;44.640;7.494;2023-01-23T07:17:18;3.90;82.30
39957;DHT22;48483;44.640;7.494;2023-01-23T07:19:45;3.90;82.80
39957;DHT22;48483;44.640;7.494;2023-01-23T07:22:18;3.90;83.30
39957;DHT22;48483;44.640;7.494;2023-01-23T07:24:44;3.80;83.10
39957;DHT22;48483;44.640;7.494;2023-01-23T07:27:11;3.80;83.20
39957;DHT22;48483;44.640;7.494;2023-01-23T07:29:38;3.80;84.20
39957;DHT22;48483;44.640;7.494;2023-01-23T07:32:05;3.80;84.60
39957;DHT22;48483;44.640;7.494;2023-01-23T07:34:31;3.80;84.90
39957;DHT22;48483;44.640;7.494;2023-01-23T07:36:58;3.80;85.00
39957;DHT22;48483;44.640;7.494;2023-01-23T07:39:26;3.80;85.50
39957;DHT22;48483;44.640;7.494;2023-01-23T07:41:53;3.80;86.10
39957;DHT22;48483;44.640;7.494;2023-01-23T07:44:21;3.90;85.40
39957;DHT22;48483;44.640;7.494;2023-01-23T07:46:48;3.90;84.40
39957;DHT22;48483;44.640;7.494;2023-01-23T07:49:15;3.90;84.30
39957;DHT22;48483;44.640;7.494;2023-01-23T07:51:41;3.90;85.10
39957;DHT22;48483;44.640;7.494;2023-01-23T07:54:08;4.00;84.50
39957;DHT22;48483;44.640;7.494;2023-01-23T07:56:36;4.00;84.40
39957;DHT22;48483;44.640;7.494;2023-01-23T07:59:03;3.90;83.60
39957;DHT22;48483;44.640;7.494;2023-01-23T08:01:29;4.00;82.10
39957;DHT22;48483;44.640;7.494;2023-01-23T08:03:56;4.00;81.40
39957;DHT22;48483;44.640;7.494;2023-01-23T08:06:22;4.10;80.40
39957;DHT22;48483;44.640;7.494;2023-01-23T08:08:49;4.10;79.20
39957;DHT22;48483;44.640;7.494;2023-01-23T08:11:16;4.10;78.50
39957;DHT22;48483;44.640;7.494;2023-01-23T08:13:47;4.20;78.80
39957;DHT22;48483;44.640;7.494;2023-01-23T08:16:14;4.20;79.30
39957;DHT22;48483;44.640;7.494;2023-01-23T08:18:41;4.20;78.80
39957;DHT22;48483;44.640;7.494;2023-01-23T08:21:09;4.30;78.60
39957;DHT22;48483;44.640;7.494;2023-01-23T08:23:35;4.30;78.30
39957;DHT22;48483;44.640;7.494;2023-01-23T08:26:04;4.40;77.30
39957;DHT22;48483;44.640;7.494;2023-01-23T08:28:32;4.50;75.60
39957;DHT22;48483;44.640;7.494;2023-01-23T08:31:01;4.50;74.90
39957;DHT22;48483;44.640;7.494;2023-01-23T08:33:28;4.60;73.80
39957;DHT22;48483;44.640;7.494;2023-01-23T08:35:55;4.60;72.90
39957;DHT22;48483;44.640;7.494;2023-01-23T08:38:23;4.60;72.30
39957;DHT22;48483;44.640;7.494;2023-01-23T08:40:51;4.70;71.00
39957;DHT22;48483;44.640;7.494;2023-01-23T08:43:19;4.80;69.80
39957;DHT22;48483;44.640;7.494;2023-01-23T08:45:48;4.90;68.90
39957;DHT22;48483;44.640;7.494;2023-01-23T08:48:16;4.90;69.40
39957;DHT22;48483;44.640;7.494;2023-01-23T08:50:43;4.80;71.80
39957;DHT22;48483;44.640;7.494;2023-01-23T08:53:10;4.80;75.50
39957;DHT22;48483;44.640;7.494;2023-01-23T08:55:36;4.70;77.20
39957;DHT22;48483;44.640;7.494;2023-01-23T08:58:04;4.60;77.80
39957;DHT22;48483;44.640;7.494;2023-01-23T09:00:31;4.50;78.70
39957;DHT22;48483;44.640;7.494;2023-01-23T09:02:58;4.50;79.50
39957;DHT22;48483;44.640;7.494;2023-01-23T09:05:26;4.60;80.00
39957;DHT22;48483;44.640;7.494;2023-01-23T09:07:54;4.60;79.90
39957;DHT22;48483;44.640;7.494;2023-01-23T09:10:21;4.70;79.80
39957;DHT22;48483;44.640;7.494;2023-01-23T09:12:50;4.70;79.70
39957;DHT22;48483;44.640;7.494;2023-01-23T09:15:17;4.70;79.70
39957;DHT22;48483;44.640;7.494;2023-01-23T09:17:43;4.80;79.40
39957;DHT22;48483;44.640;7.494;2023-01-23T09:20:10;4.80;79.20
39957;DHT22;48483;44.640;7.494;2023-01-23T09:22:38;4.90;79.00
39957;DHT22;48483;44.640;7.494;2023-01-23T09:25:06;4.90;78.80
39957;DHT22;48483;44.640;7.494;2023-01-23T09:27:32;5.00;78.80
39957;DHT22;48483;44.640;7.494;2023-01-23T09:29:59;5.00;78.70
39957;DHT22;48483;44.640;7.494;2023-01-23T09:32:25;5.00;78.40
39957;DHT22;48483;44.640;7.494;2023-01-23T09:34:52;5.00;78.70
39957;DHT22;48483;44.640;7.494;2023-01-23T09:37:20;5.10;78.80
39957;DHT22;48483;44.640;7.494;2023-01-23T09:39:48;5.10;78.40
39957;DHT22;48483;44.640;7.494;2023-01-23T09:42:17;5.10;78.30
39957;DHT22;48483;44.640;7.494;2023-01-23T09:44:48;5.30;77.80
39957;DHT22;48483;44.640;7.494;2023-01-23T09:47:18;5.60;75.00
39957;DHT22;48483;44.640;7.494;2023-01-23T09:49:52;5.40;81.10
39957;DHT22;48483;44.640;7.494;2023-01-23T09:52:26;5.20;83.80
39957;DHT22;48483;44.640;7.494;2023-01-23T09:54:59;5.00;83.80
39957;DHT22;48483;44.640;7.494;2023-01-23T09:57:33;4.90;84.10
39957;DHT22;48483;44.640;7.494;2023-01-23T10:00:19;4.80;84.30
39957;DHT22;48483;44.640;7.494;2023-01-23T10:03:04;4.80;84.90
39957;DHT22;48483;44.640;7.494;2023-01-23T10:05:41;4.70;84.60
39957;DHT22;48483;44.640;7.494;2023-01-23T10:08:17;4.70;85.40
39957;DHT22;48483;44.640;7.494;2023-01-23T10:10:57;4.80;85.80
39957;DHT22;48483;44.640;7.494;2023-01-23T10:14:02;4.80;85.80
39957;DHT22;48483;44.640;7.494;2023-01-23T10:16:49;4.80;86.40
39957;DHT22;48483;44.640;7.494;2023-01-23T10:22:23;4.80;87.30
39957;DHT22;48483;44.640;7.494;2023-01-23T10:24:56;4.80;88.30
39957;DHT22;48483;44.640;7.494;2023-01-23T10:27:31;4.80;88.20
39957;DHT22;48483;44.640;7.494;2023-01-23T10:30:02;4.80;88.20
39957;DHT22;48483;44.640;7.494;2023-01-23T10:32:30;4.90;88.60
39957;DHT22;48483;44.640;7.494;2023-01-23T10:35:00;4.80;87.90
39957;DHT22;48483;44.640;7.494;2023-01-23T10:37:38;4.90;88.00
39957;DHT22;48483;44.640;7.494;2023-01-23T10:40:09;4.80;87.50
39957;DHT22;48483;44.640;7.494;2023-01-23T10:42:38;4.90;88.30
39957;DHT22;48483;44.640;7.494;2023-01-23T10:45:06;4.80;89.90
39957;DHT22;48483;44.640;7.494;2023-01-23T10:47:47;4.70;90.20
39957;DHT22;48483;44.640;7.494;2023-01-23T10:50:14;4.70;90.40
39957;DHT22;48483;44.640;7.494;2023-01-23T10:52:43;4.70;90.00
39957;DHT22;48483;44.640;7.494;2023-01-23T10:55:27;4.60;90.00
39957;DHT22;48483;44.640;7.494;2023-01-23T10:57:59;4.60;90.00
39957;DHT22;48483;44.640;7.494;2023-01-23T11:00:34;4.60;89.20
39957;DHT22;48483;44.640;7.494;2023-01-23T11:03:25;4.60;90.00
39957;DHT22;48483;44.640;7.494;2023-01-23T11:05:54;4.70;91.40
39957;DHT22;48483;44.640;7.494;2023-01-23T11:08:23;4.70;91.60
39957;DHT22;48483;44.640;7.494;2023-01-23T11:10:49;4.70;91.10
39957;DHT22;48483;44.640;7.494;2023-01-23T11:13:26;4.70;90.00
39957;DHT22;48483;44.640;7.494;2023-01-23T11:15:53;4.80;85.90
39957;DHT22;48483;44.640;7.494;2023-01-23T11:18:31;4.90;84.10
39957;DHT22;48483;44.640;7.494;2023-01-23T11:20:59;5.00;83.30
39957;DHT22;48483;44.640;7.494;2023-01-23T11:23:26;5.00;82.90
39957;DHT22;48483;44.640;7.494;2023-01-23T11:25:53;5.00;81.40
39957;DHT22;48483;44.640;7.494;2023-01-23T11:28:21;5.10;80.60
39957;DHT22;48483;44.640;7.494;2023-01-23T11:30:52;4.80;87.40
39957;DHT22;48483;44.640;7.494;2023-01-23T11:33:32;4.70;88.30
39957;DHT22;48483;44.640;7.494;2023-01-23T11:36:01;4.80;89.50
39957;DHT22;48483;44.640;7.494;2023-01-23T11:38:35;4.70;90.10
39957;DHT22;48483;44.640;7.494;2023-01-23T11:41:03;4.70;90.40
39957;DHT22;48483;44.640;7.494;2023-01-23T11:43:30;4.70;90.60
39957;DHT22;48483;44.640;7.494;2023-01-23T11:46:28;4.70;90.60
39957;DHT22;48483;44.640;7.494;2023-01-23T11:49:17;4.80;90.20
39957;DHT22;48483;44.640;7.494;2023-01-23T11:51:55;4.80;87.40
39957;DHT22;48483;44.640;7.494;2023-01-23T11:54:41;4.90;88.10
39957;DHT22;48483;44.640;7.494;2023-01-23T11:57:16;4.90;89.00
39957;DHT22;48483;44.640;7.494;2023-01-23T11:59:55;4.90;89.50
39957;DHT22;48483;44.640;7.494;2023-01-23T12:02:45;5.00;90.20
39957;DHT22;48483;44.640;7.494;2023-01-23T12:05:55;5.00;91.70
39957;DHT22;48483;44.640;7.494;2023-01-23T12:08:29;5.10;92.30
39957;DHT22;48483;44.640;7.494;2023-01-23T12:11:07;5.20;92.90
39957;DHT22;48483;44.640;7.494;2023-01-23T12:16:39;5.30;93.00
39957;DHT22;48483;44.640;7.494;2023-01-23T12:19:25;5.50;93.10
39957;DHT22;48483;44.640;7.494;2023-01-23T12:21:59;5.50;93.20
39957;DHT22;48483;44.640;7.494;2023-01-23T12:24:39;5.50;93.10
39957;DHT22;48483;44.640;7.494;2023-01-23T12:27:14;5.40;92.50
39957;DHT22;48483;44.640;7.494;2023-01-23T12:29:53;5.30;92.60
39957;DHT22;48483;44.640;7.494;2023-01-23T12:32:39;5.30;93.20
39957;DHT22;48483;44.640;7.494;2023-01-23T12:35:25;5.20;92.50
39957;DHT22;48483;44.640;7.494;2023-01-23T12:38:09;5.10;92.20
39957;DHT22;48483;44.640;7.494;2023-01-23T12:40:40;5.10;91.80
39957;DHT22;48483;44.640;7.494;2023-01-23T12:43:11;5.00;92.00
39957;DHT22;48483;44.640;7.494;2023-01-23T12:45:44;5.00;91.90
39957;DHT22;48483;44.640;7.494;2023-01-23T12:48:16;5.00;92.20
39957;DHT22;48483;44.640;7.494;2023-01-23T12:50:47;5.00;93.90
39957;DHT22;48483;44.640;7.494;2023-01-23T12:53:16;5.00;95.30
39957;DHT22;48483;44.640;7.494;2023-01-23T12:55:53;5.00;99.90
39957;DHT22;48483;44.640;7.494;2023-01-23T12:58:21;5.00;99.90
39957;DHT22;48483;44.640;7.494;2023-01-23T13:00:59;5.10;99.90
39957;DHT22;48483;44.640;7.494;2023-01-23T13:03:51;5.20;99.90
39957;DHT22;48483;44.640;7.494;2023-01-23T13:06:33;5.20;99.90
39957;DHT22;48483;44.640;7.494;2023-01-23T13:09:06;5.20;99.90
39957;DHT22;48483;44.640;7.494;2023-01-23T13:11:42;5.10;99.90
39957;DHT22;48483;44.640;7.494;2023-01-23T13:14:16;5.10;99.90
39957;DHT22;48483;44.640;7.494;2023-01-23T13:16:45;5.10;99.90
39957;DHT22;48483;44.640;7.494;2023-01-23T13:19:22;5.10;99.90
39957;DHT22;48483;44.640;7.494;2023-01-23T13:22:20;5.20;99.90
39957;DHT22;48483;44.640;7.494;2023-01-23T13:24:48;5.20;99.90
39957;DHT22;48483;44.640;7.494;2023-01-23T13:27:39;5.20;99.90
39957;DHT22;48483;44.640;7.494;2023-01-23T13:30:38;5.20;99.90
39957;DHT22;48483;44.640;7.494;2023-01-23T13:36:33;5.30;99.90
39957;DHT22;48483;44.640;7.494;2023-01-23T13:45:30;5.40;99.90
39957;DHT22;48483;44.640;7.494;2023-01-23T13:48:02;5.40;99.90
39957;DHT22;48483;44.640;7.494;2023-01-23T13:50:52;5.40;99.90
39957;DHT22;48483;44.640;7.494;2023-01-23T13:53:24;5.50;99.90
39957;DHT22;48483;44.640;7.494;2023-01-23T13:56:11;5.50;99.90
39957;DHT22;48483;44.640;7.494;2023-01-23T13:59:00;5.50;99.90
39957;DHT22;48483;44.640;7.494;2023-01-23T14:01:29;5.50;99.90
39957;DHT22;48483;44.640;7.494;2023-01-23T14:04:18;5.60;99.90
39957;DHT22;48483;44.640;7.494;2023-01-23T14:07:21;5.60;99.90
39957;DHT22;48483;44.640;7.494;2023-01-23T14:10:20;5.60;99.90
39957;DHT22;48483;44.640;7.494;2023-01-23T14:12:47;5.60;99.90
39957;DHT22;48483;44.640;7.494;2023-01-23T14:15:24;5.70;99.90
39957;DHT22;48483;44.640;7.494;2023-01-23T14:18:27;5.80;99.90
39957;DHT22;48483;44.640;7.494;2023-01-23T14:21:02;5.80;99.90
39957;DHT22;48483;44.640;7.494;2023-01-23T14:23:34;5.90;99.90
39957;DHT22;48483;44.640;7.494;2023-01-23T14:26:03;5.90;99.90
39957;DHT22;48483;44.640;7.494;2023-01-23T14:28:30;5.90;99.90
39957;DHT22;48483;44.640;7.494;2023-01-23T14:31:00;5.90;99.90
39957;DHT22;48483;44.640;7.494;2023-01-23T14:33:28;5.90;99.90
39957;DHT22;48483;44.640;7.494;2023-01-23T14:36:05;6.00;99.90
39957;DHT22;48483;44.640;7.494;2023-01-23T14:38:33;6.00;99.90
39957;DHT22;48483;44.640;7.494;2023-01-23T14:41:03;6.00;99.90
39957;DHT22;48483;44.640;7.494;2023-01-23T14:43:30;6.10;99.90
39957;DHT22;48483;44.640;7.494;2023-01-23T14:46:04;6.00;99.90
39957;DHT22;48483;44.640;7.494;2023-01-23T14:48:36;6.00;99.90
39957;DHT22;48483;44.640;7.494;2023-01-23T14:51:12;5.90;99.90
39957;DHT22;48483;44.640;7.494;2023-01-23T14:53:40;6.00;99.90
39957;DHT22;48483;44.640;7.494;2023-01-23T14:56:09;5.90;99.90
39957;DHT22;48483;44.640;7.494;2023-01-23T14:58:37;5.90;99.90
39957;DHT22;48483;44.640;7.494;2023-01-23T15:01:05;5.80;99.90
39957;DHT22;48483;44.640;7.494;2023-01-23T15:03:37;5.80;99.90
39957;DHT22;48483;44.640;7.494;2023-01-23T15:06:08;5.70;99.90
39957;DHT22;48483;44.640;7.494;2023-01-23T15:08:36;5.70;99.90
39957;DHT22;48483;44.640;7.494;2023-01-23T15:11:03;5.70;99.90
39957;DHT22;48483;44.640;7.494;2023-01-23T15:13:38;5.70;99.90
39957;DHT22;48483;44.640;7.494;2023-01-23T15:16:13;5.60;99.90
39957;DHT22;48483;44.640;7.494;2023-01-23T15:18:52;5.60;99.90
39957;DHT22;48483;44.640;7.494;2023-01-23T15:21:29;5.60;99.90
39957;DHT22;48483;44.640;7.494;2023-01-23T15:24:15;5.60;99.90
39957;DHT22;48483;44.640;7.494;2023-01-23T15:26:44;5.60;99.90
39957;DHT22;48483;44.640;7.494;2023-01-23T15:29:18;5.60;99.90
39957;DHT22;48483;44.640;7.494;2023-01-23T15:31:48;5.60;99.90
39957;DHT22;48483;44.640;7.494;2023-01-23T15:34:26;5.50;99.90
39957;DHT22;48483;44.640;7.494;2023-01-23T15:36:56;5.50;99.90
39957;DHT22;48483;44.640;7.494;2023-01-23T15:39:26;5.50;99.90
39957;DHT22;48483;44.640;7.494;2023-01-23T15:41:56;5.40;99.90
39957;DHT22;48483;44.640;7.494;2023-01-23T15:44:23;5.40;99.90
39957;DHT22;48483;44.640;7.494;2023-01-23T15:46:53;5.30;99.90
39957;DHT22;48483;44.640;7.494;2023-01-23T15:49:19;5.30;99.90
39957;DHT22;48483;44.640;7.494;2023-01-23T15:51:46;5.30;99.90
39957;DHT22;48483;44.640;7.494;2023-01-23T15:54:18;5.10;99.90
39957;DHT22;48483;44.640;7.494;2023-01-23T15:56:45;5.10;99.90
39957;DHT22;48483;44.640;7.494;2023-01-23T15:59:14;5.10;99.90
39957;DHT22;48483;44.640;7.494;2023-01-23T16:01:40;5.10;99.90
39957;DHT22;48483;44.640;7.494;2023-01-23T16:04:08;5.00;99.90
39957;DHT22;48483;44.640;7.494;2023-01-23T16:06:35;5.00;99.90
39957;DHT22;48483;44.640;7.494;2023-01-23T16:09:03;4.90;99.90
39957;DHT22;48483;44.640;7.494;2023-01-23T16:11:33;4.80;99.90
39957;DHT22;48483;44.640;7.494;2023-01-23T16:14:00;4.80;99.90
39957;DHT22;48483;44.640;7.494;2023-01-23T16:16:27;4.70;99.90
39957;DHT22;48483;44.640;7.494;2023-01-23T16:18:54;4.70;99.90
39957;DHT22;48483;44.640;7.494;2023-01-23T16:21:27;4.60;99.90
39957;DHT22;48483;44.640;7.494;2023-01-23T16:23:55;4.50;99.90
39957;DHT22;48483;44.640;7.494;2023-01-23T16:26:23;4.50;99.90